createdAt,value
2019-04-04T00:02:13.598Z,4.50
2019-04-04T00:04:43.351Z,3.83
2019-04-04T00:09:53.318Z,4.05
2019-04-04T00:12:24.251Z,4.85
2019-04-04T00:14:54.010Z,4.42
2019-04-04T00:17:23.875Z,5.37
2019-04-04T00:19:53.534Z,5.45
2019-04-04T00:22:23.302Z,3.72
2019-04-04T00:24:53.300Z,3.95
2019-04-04T00:27:23.388Z,7.12
2019-04-04T00:29:53.144Z,5.92
2019-04-04T00:32:25.323Z,5.22
2019-04-04T00:34:55.290Z,4.30
2019-04-04T00:37:25.307Z,3.98
2019-04-04T00:39:55.161Z,6.35
2019-04-04T00:42:27.289Z,4.55
2019-04-04T00:44:57.157Z,4.33
2019-04-04T00:47:32.298Z,5.07
2019-04-04T00:50:00.838Z,5.85
2019-04-04T00:52:30.998Z,4.33
2019-04-04T00:55:00.820Z,4.42
2019-04-04T00:57:31.577Z,4.58
2019-04-04T01:00:05.449Z,4.22
2019-04-04T01:02:40.300Z,4.78
2019-04-04T01:06:37.629Z,4.42
2019-04-04T01:09:11.516Z,5.83
2019-04-04T01:11:38.810Z,4.30
2019-04-04T01:14:11.873Z,4.05
2019-04-04T01:16:42.702Z,4.20
2019-04-04T01:19:13.533Z,6.90
2019-04-04T01:21:43.198Z,4.08
2019-04-04T01:24:14.240Z,4.42
2019-04-04T01:26:56.560Z,4.03
2019-04-04T01:29:26.235Z,5.03
2019-04-04T01:31:55.985Z,5.05
2019-04-04T01:34:25.744Z,5.45
2019-04-04T01:36:59.500Z,5.45
2019-04-04T01:39:31.235Z,5.03
2019-04-04T01:42:05.048Z,4.28
2019-04-04T01:44:35.317Z,5.47
2019-04-04T01:47:05.255Z,5.35
2019-04-04T01:49:34.951Z,4.42
2019-04-04T01:52:05.701Z,4.22
2019-04-04T01:54:35.392Z,4.55
2019-04-04T01:57:07.692Z,4.50
2019-04-04T01:59:36.627Z,4.65
2019-04-04T02:02:07.517Z,4.58
2019-04-04T02:07:08.333Z,4.83
2019-04-04T02:09:38.016Z,5.60
2019-04-04T02:12:08.472Z,4.70
2019-04-04T02:14:38.403Z,4.37
2019-04-04T02:17:14.035Z,4.42
2019-04-04T02:19:43.710Z,4.85
2019-04-04T02:22:14.480Z,5.05
2019-04-04T02:24:44.257Z,5.20
2019-04-04T02:27:14.008Z,5.35
2019-04-04T02:29:43.779Z,5.45
2019-04-04T02:32:27.925Z,5.35
2019-04-04T02:34:57.677Z,5.15
2019-04-04T02:37:30.566Z,5.05
2019-04-04T02:40:00.413Z,4.58
2019-04-04T02:42:30.467Z,6.20
2019-04-04T02:45:00.254Z,6.33
2019-04-04T02:47:31.229Z,5.00
2019-04-04T02:50:02.117Z,5.00
2019-04-04T02:52:37.796Z,4.73
2019-04-04T02:55:07.554Z,4.65
2019-04-04T02:57:42.270Z,5.08
2019-04-04T03:00:12.504Z,6.42
2019-04-04T03:02:45.383Z,5.25
2019-04-04T03:05:58.965Z,6.05
2019-04-04T03:08:28.947Z,5.45
2019-04-04T03:10:58.706Z,4.92
2019-04-04T03:13:31.274Z,4.45
2019-04-04T03:15:59.851Z,5.60
2019-04-04T03:18:29.770Z,5.12
2019-04-04T03:20:59.513Z,5.37
2019-04-04T03:23:33.820Z,6.30
2019-04-04T03:26:02.840Z,4.55
2019-04-04T03:28:33.742Z,5.30
2019-04-04T03:31:03.988Z,4.78
2019-04-04T03:33:34.183Z,4.87
2019-04-04T03:36:04.938Z,5.37
2019-04-04T03:38:39.192Z,5.42
2019-04-04T03:41:08.902Z,5.25
2019-04-04T03:43:39.935Z,5.60
2019-04-04T03:46:09.626Z,6.03
2019-04-04T03:48:40.704Z,4.75
2019-04-04T03:51:10.470Z,6.10
2019-04-04T03:53:41.864Z,5.35
2019-04-04T03:56:11.627Z,5.37
2019-04-04T03:59:00.807Z,5.20
2019-04-04T04:01:30.631Z,5.47
2019-04-04T04:04:12.841Z,5.00
2019-04-04T04:06:43.226Z,4.97
2019-04-04T04:09:15.360Z,5.70
2019-04-04T04:11:45.192Z,4.90
2019-04-04T04:14:15.075Z,5.22
2019-04-04T04:16:44.794Z,5.22
2019-04-04T04:19:48.520Z,5.37
2019-04-04T04:22:19.355Z,6.28
2019-04-04T04:25:02.191Z,6.00
2019-04-04T04:27:29.952Z,4.65
2019-04-04T04:30:04.436Z,4.90
2019-04-04T04:32:32.538Z,5.30
2019-04-04T04:35:07.277Z,6.85
2019-04-04T04:37:33.789Z,5.75
2019-04-04T04:40:15.649Z,5.67
2019-04-04T04:42:45.409Z,4.90
2019-04-04T04:45:15.182Z,6.92
2019-04-04T04:47:44.942Z,6.28
2019-04-04T04:50:14.764Z,7.37
2019-04-04T04:52:47.491Z,4.80
2019-04-04T04:55:24.500Z,5.95
2019-04-04T05:00:35.238Z,6.15
2019-04-04T05:03:09.066Z,6.05
2019-04-04T05:05:38.864Z,5.58
2019-04-04T05:08:10.223Z,5.15
2019-04-04T05:10:40.114Z,5.65
2019-04-04T05:13:09.862Z,5.22
2019-04-04T05:15:39.543Z,5.40
2019-04-04T05:18:11.792Z,5.40
2019-04-04T05:20:40.750Z,5.37
2019-04-04T05:23:13.382Z,5.33
2019-04-04T05:25:53.409Z,5.85
2019-04-04T05:28:14.531Z,5.25
2019-04-04T05:30:46.841Z,5.00
2019-04-04T05:33:15.858Z,6.00
2019-04-04T05:35:45.544Z,5.90
2019-04-04T05:38:15.399Z,5.95
2019-04-04T05:40:45.257Z,5.55
2019-04-04T05:43:18.933Z,5.42
2019-04-04T05:45:48.623Z,6.12
2019-04-04T05:48:44.248Z,5.50
2019-04-04T05:51:15.201Z,5.55
2019-04-04T05:54:13.309Z,4.92
2019-04-04T05:56:44.716Z,5.67
2019-04-04T05:59:16.116Z,5.33
2019-04-04T06:01:45.996Z,5.87
2019-04-04T06:04:19.573Z,6.33
2019-04-04T06:06:49.487Z,6.47
2019-04-04T06:09:19.413Z,6.92
2019-04-04T06:11:50.934Z,5.12
2019-04-04T06:14:20.740Z,5.47
2019-04-04T06:16:50.549Z,5.67
2019-04-04T06:19:32.645Z,5.30
2019-04-04T06:22:02.497Z,5.10
2019-04-04T06:24:33.336Z,5.05
2019-04-04T06:27:04.694Z,5.15
2019-04-04T06:29:34.844Z,7.65
2019-04-04T06:32:04.643Z,8.03
2019-04-04T06:34:34.629Z,5.15
2019-04-04T06:37:04.401Z,6.05
2019-04-04T06:39:40.598Z,5.50
2019-04-04T06:42:11.379Z,7.40
2019-04-04T06:44:43.782Z,7.35
2019-04-04T06:47:12.707Z,4.70
2019-04-04T06:49:46.320Z,7.72
2019-04-04T06:52:18.139Z,5.75
2019-04-04T06:54:49.444Z,8.73
2019-04-04T06:57:19.209Z,7.53
2019-04-04T06:59:51.212Z,6.85
2019-04-04T07:02:21.969Z,6.50
2019-04-04T07:04:52.588Z,5.45
2019-04-04T07:07:22.368Z,4.60
2019-04-04T07:09:52.191Z,5.47
2019-04-04T07:12:28.138Z,5.83
2019-04-04T07:14:53.418Z,7.58
2019-04-04T07:17:23.179Z,5.20
2019-04-04T07:19:53.015Z,5.10
2019-04-04T07:22:24.830Z,7.47
2019-04-04T07:24:57.420Z,5.95
2019-04-04T07:27:27.114Z,6.58
2019-04-04T07:29:57.320Z,7.80
2019-04-04T07:32:27.158Z,4.70
2019-04-04T07:34:56.897Z,5.92
2019-04-04T07:37:26.618Z,4.70
2019-04-04T07:39:57.342Z,4.97
2019-04-04T07:42:27.014Z,4.72
2019-04-04T07:44:56.850Z,6.87
2019-04-04T07:47:26.620Z,6.40
2019-04-04T07:49:57.410Z,6.47
2019-04-04T07:52:27.265Z,5.33
2019-04-04T07:54:57.108Z,4.33
2019-04-04T07:57:29.899Z,4.85
2019-04-04T07:59:58.389Z,4.58
2019-04-04T08:02:28.220Z,5.75
2019-04-04T08:04:57.993Z,7.35
2019-04-04T08:07:27.672Z,6.35
2019-04-04T08:10:00.296Z,6.03
2019-04-04T08:12:29.955Z,9.33
2019-04-04T08:14:59.829Z,7.08
2019-04-04T08:17:29.712Z,5.92
2019-04-04T08:20:04.559Z,5.00
2019-04-04T08:22:35.320Z,8.90
2019-04-04T08:25:05.559Z,6.08
2019-04-04T08:27:35.380Z,5.50
2019-04-04T08:30:07.110Z,5.28
2019-04-04T08:32:36.905Z,4.10
2019-04-04T08:35:07.990Z,10.13
2019-04-04T08:37:37.743Z,6.33
2019-04-04T08:40:08.120Z,6.17
2019-04-04T08:42:37.864Z,4.97
2019-04-04T08:45:07.786Z,6.83
2019-04-04T08:47:37.639Z,9.48
2019-04-04T08:50:07.426Z,8.48
2019-04-04T08:52:37.165Z,13.00
2019-04-04T08:55:12.404Z,8.50
2019-04-04T08:57:42.176Z,14.58
2019-04-04T09:00:31.316Z,14.13
2019-04-04T09:03:01.049Z,9.75
2019-04-04T09:05:30.853Z,11.38
2019-04-04T09:08:00.762Z,20.52
2019-04-04T09:10:35.918Z,13.70
2019-04-04T09:15:45.970Z,11.75
2019-04-04T09:18:17.035Z,12.50
2019-04-04T09:20:46.718Z,8.68
2019-04-04T09:23:16.449Z,10.18
2019-04-04T09:25:46.251Z,12.80
2019-04-04T09:28:16.040Z,12.18
2019-04-04T09:30:45.793Z,16.15
2019-04-04T09:33:15.593Z,13.58
2019-04-04T09:35:45.450Z,10.63
2019-04-04T09:38:15.267Z,12.53
2019-04-04T09:40:45.207Z,13.75
2019-04-04T09:43:14.987Z,9.58
2019-04-04T09:45:44.780Z,9.70
2019-04-04T09:48:14.573Z,6.97
2019-04-04T09:50:45.428Z,7.67
2019-04-04T09:53:22.761Z,10.48
2019-04-04T09:55:52.545Z,10.25
2019-04-04T09:58:23.248Z,18.10
2019-04-04T10:00:52.917Z,11.28
2019-04-04T10:03:22.668Z,9.15
2019-04-04T10:05:53.653Z,7.67
2019-04-04T10:08:23.493Z,7.45
2019-04-04T10:10:53.487Z,13.35
2019-04-04T10:13:23.250Z,12.23
2019-04-04T10:15:53.046Z,14.53
2019-04-04T10:18:22.787Z,13.58
2019-04-04T10:20:52.487Z,8.78
2019-04-04T10:23:23.490Z,11.68
2019-04-04T10:25:53.384Z,11.23
2019-04-04T10:28:23.585Z,12.25
2019-04-04T10:30:53.426Z,7.10
2019-04-04T10:33:23.244Z,10.50
2019-04-04T10:35:53.105Z,9.43
2019-04-04T10:38:22.903Z,9.28
2019-04-04T10:40:52.709Z,13.28
2019-04-04T10:43:22.504Z,11.20
2019-04-04T10:45:52.379Z,8.25
2019-04-04T10:48:25.032Z,10.50
2019-04-04T10:50:54.984Z,9.25
2019-04-04T10:53:24.803Z,10.78
2019-04-04T10:56:52.213Z,9.83
2019-04-04T10:59:22.021Z,7.17
2019-04-04T11:01:51.852Z,6.75
2019-04-04T11:04:21.760Z,6.70
2019-04-04T11:06:53.078Z,6.55
2019-04-04T11:09:23.117Z,14.30
2019-04-04T11:11:53.115Z,10.80
2019-04-04T11:14:25.189Z,14.98
2019-04-04T11:16:54.407Z,13.03
2019-04-04T11:19:31.055Z,12.85
2019-04-04T11:21:55.648Z,11.45
2019-04-04T11:24:25.675Z,10.00
2019-04-04T11:26:55.526Z,10.58
2019-04-04T11:29:26.495Z,13.18
2019-04-04T11:31:56.291Z,14.10
2019-04-04T11:34:27.058Z,17.48
2019-04-04T11:36:57.816Z,12.30
2019-04-04T11:39:27.600Z,11.35
2019-04-04T11:41:57.419Z,14.87
2019-04-04T11:44:27.279Z,14.33
2019-04-04T11:46:57.136Z,14.75
2019-04-04T11:49:26.959Z,13.35
2019-04-04T11:51:56.669Z,12.50
2019-04-04T11:54:26.438Z,14.60
2019-04-04T11:56:56.183Z,10.65
2019-04-04T11:59:26.199Z,12.45
2019-04-04T12:01:56.157Z,12.53
2019-04-04T12:04:26.050Z,9.68
2019-04-04T12:06:55.833Z,13.58
2019-04-04T12:09:25.720Z,7.08
2019-04-04T12:11:55.478Z,9.65
2019-04-04T12:14:25.241Z,10.08
2019-04-04T12:16:55.085Z,10.03
2019-04-04T12:19:25.133Z,8.38
2019-04-04T12:21:55.890Z,14.90
2019-04-04T12:24:27.395Z,9.83
2019-04-04T12:26:57.155Z,15.47
2019-04-04T12:29:26.964Z,8.88
2019-04-04T12:31:56.767Z,8.93
2019-04-04T12:34:26.767Z,7.87
2019-04-04T12:36:56.623Z,10.13
2019-04-04T12:39:26.727Z,8.23
2019-04-04T12:41:56.448Z,7.58
2019-04-04T12:44:28.232Z,10.35
2019-04-04T12:46:57.925Z,6.20
2019-04-04T12:49:27.799Z,7.50
2019-04-04T12:51:58.679Z,8.58
2019-04-04T12:54:28.540Z,6.80
2019-04-04T12:56:58.242Z,8.83
2019-04-04T12:59:28.125Z,6.60
2019-04-04T13:01:59.018Z,8.40
2019-04-04T13:04:31.848Z,8.23
2019-04-04T13:07:00.224Z,5.25
2019-04-04T13:09:31.107Z,11.45
2019-04-04T13:12:00.903Z,7.37
2019-04-04T13:17:11.130Z,5.92
2019-04-04T13:19:42.286Z,7.65
2019-04-04T13:22:12.180Z,6.80
2019-04-04T13:24:42.177Z,5.08
2019-04-04T13:27:12.003Z,6.67
2019-04-04T13:29:41.945Z,7.10
2019-04-04T13:32:11.839Z,5.20
2019-04-04T13:34:41.608Z,5.08
2019-04-04T13:37:11.574Z,6.30
2019-04-04T13:39:42.453Z,6.30
2019-04-04T13:42:12.177Z,9.65
2019-04-04T13:44:44.916Z,4.53
2019-04-04T13:47:14.607Z,7.22
2019-04-04T13:49:45.051Z,5.37
2019-04-04T13:52:14.878Z,6.45
2019-04-04T13:54:50.034Z,6.58
2019-04-04T14:00:38.965Z,10.28
2019-04-04T14:03:09.064Z,6.08
2019-04-04T14:05:38.937Z,6.03
2019-04-04T14:08:09.784Z,7.17
2019-04-04T14:10:39.558Z,6.62
2019-04-04T14:13:14.518Z,6.53
2019-04-04T14:15:45.898Z,9.53
2019-04-04T14:18:39.444Z,7.97
2019-04-04T14:21:04.386Z,4.62
2019-04-04T14:23:34.383Z,4.90
2019-04-04T14:26:04.247Z,6.75
2019-04-04T14:28:34.999Z,7.62
2019-04-04T14:31:05.017Z,6.58
2019-04-04T14:33:34.932Z,4.95
2019-04-04T14:36:04.671Z,5.53
2019-04-04T14:38:34.485Z,5.20
2019-04-04T14:41:11.170Z,4.90
2019-04-04T14:43:36.900Z,6.70
2019-04-04T14:46:06.764Z,5.67
2019-04-04T14:48:36.772Z,5.78
2019-04-04T14:51:06.627Z,6.30
2019-04-04T14:53:37.610Z,6.10
2019-04-04T14:56:08.409Z,9.23
2019-04-04T14:58:39.157Z,6.00
2019-04-04T15:01:09.010Z,5.42
2019-04-04T15:03:44.833Z,5.62
2019-04-04T15:06:16.257Z,5.83
2019-04-04T15:08:46.021Z,4.83
2019-04-04T15:11:24.074Z,4.53
2019-04-04T15:13:47.243Z,4.25
2019-04-04T15:16:17.536Z,5.50
2019-04-04T15:18:47.445Z,7.87
2019-04-04T15:21:17.174Z,4.62
2019-04-04T15:23:47.020Z,5.17
2019-04-04T15:26:16.882Z,7.15
2019-04-04T15:28:47.690Z,5.12
2019-04-04T15:31:17.477Z,9.00
2019-04-04T15:33:50.474Z,6.45
2019-04-04T15:36:19.838Z,5.22
2019-04-04T15:38:49.682Z,6.33
2019-04-04T15:41:19.538Z,6.28
2019-04-04T15:43:49.362Z,6.25
2019-04-04T15:46:19.215Z,7.17
2019-04-04T15:48:56.334Z,5.75
2019-04-04T15:51:26.243Z,4.92
2019-04-04T15:53:59.187Z,7.70
2019-04-04T15:56:30.096Z,6.50
2019-04-04T15:58:59.898Z,4.60
2019-04-04T16:01:29.756Z,6.28
2019-04-04T16:04:02.944Z,5.08
2019-04-04T16:06:32.753Z,6.35
2019-04-04T16:09:03.997Z,6.12
2019-04-04T16:11:33.918Z,5.42
2019-04-04T16:14:05.760Z,7.53
2019-04-04T16:17:36.230Z,7.30
2019-04-04T16:22:36.103Z,7.12
2019-04-04T16:25:08.025Z,6.22
2019-04-04T16:27:37.956Z,6.97
2019-04-04T16:30:08.359Z,6.92
2019-04-04T16:32:38.360Z,4.72
2019-04-04T16:35:08.376Z,5.97
2019-04-04T16:37:38.266Z,6.67
2019-04-04T16:40:09.966Z,5.22
2019-04-04T16:45:09.389Z,4.65
2019-04-04T16:47:39.984Z,10.60
2019-04-04T16:50:11.309Z,7.90
2019-04-04T16:52:41.258Z,5.78
2019-04-04T16:55:11.112Z,6.00
2019-04-04T16:57:43.178Z,7.35
2019-04-04T17:00:13.595Z,5.15
2019-04-04T17:02:43.438Z,4.92
2019-04-04T17:05:13.268Z,5.17
2019-04-04T17:07:43.081Z,9.58
2019-04-04T17:10:12.925Z,7.50
2019-04-04T17:12:44.164Z,6.83
2019-04-04T17:17:54.063Z,6.78
2019-04-04T17:20:23.906Z,7.60
2019-04-04T17:25:33.858Z,6.78
2019-04-04T17:28:04.467Z,6.00
2019-04-04T17:30:34.571Z,4.67
2019-04-04T17:33:09.269Z,4.22
2019-04-04T17:35:44.941Z,12.10
2019-04-04T17:38:20.548Z,40.45
2019-04-04T17:40:51.093Z,68.17
2019-04-04T17:43:23.035Z,83.42
2019-04-04T17:45:52.995Z,115.30
2019-04-04T17:48:32.634Z,101.38
2019-04-04T17:51:01.944Z,101.42
2019-04-04T17:53:32.159Z,102.62
2019-04-04T17:56:01.939Z,89.80
2019-04-04T17:58:32.372Z,91.50
2019-04-04T18:01:02.304Z,94.87
2019-04-04T18:03:33.398Z,72.70
2019-04-04T18:06:03.376Z,83.20
2019-04-04T18:08:33.733Z,94.83
2019-04-04T18:11:03.570Z,78.55
2019-04-04T18:13:33.567Z,78.25
2019-04-04T18:16:03.660Z,65.15
2019-04-04T18:18:33.808Z,66.62
2019-04-04T18:21:03.589Z,64.58
2019-04-04T18:23:33.560Z,55.65
2019-04-04T18:26:03.363Z,60.33
2019-04-04T18:28:33.429Z,49.42
2019-04-04T18:31:03.266Z,54.98
2019-04-04T18:33:34.433Z,50.92
2019-04-04T18:36:04.576Z,39.25
2019-04-04T18:38:38.843Z,38.25
2019-04-04T18:41:09.099Z,43.25
2019-04-04T18:43:47.425Z,42.17
2019-04-04T18:46:17.201Z,39.50
2019-04-04T18:48:47.321Z,38.48
2019-04-04T18:51:17.212Z,34.13
2019-04-04T18:53:50.145Z,37.93
2019-04-04T18:56:19.926Z,36.08
2019-04-04T18:58:49.679Z,29.77
2019-04-04T19:01:19.558Z,34.55
2019-04-04T19:03:49.360Z,27.58
2019-04-04T19:06:19.191Z,30.12
2019-04-04T19:08:50.652Z,30.77
2019-04-04T19:11:20.378Z,23.60
2019-04-04T19:13:50.254Z,27.67
2019-04-04T19:16:20.057Z,24.20
2019-04-04T19:18:51.017Z,21.37
2019-04-04T19:21:20.872Z,20.63
2019-04-04T19:23:50.636Z,23.77
2019-04-04T19:26:20.366Z,21.77
2019-04-04T19:28:51.331Z,16.40
2019-04-04T19:31:21.108Z,14.58
2019-04-04T19:33:51.951Z,18.75
2019-04-04T19:36:21.824Z,16.75
2019-04-04T19:38:51.723Z,17.75
2019-04-04T19:41:21.520Z,22.77
2019-04-04T19:43:51.297Z,18.85
2019-04-04T19:46:21.129Z,12.00
2019-04-04T19:48:54.092Z,14.18
2019-04-04T19:51:23.813Z,12.20
2019-04-04T19:54:15.280Z,17.50
2019-04-04T19:57:50.773Z,12.85
2019-04-04T20:00:23.846Z,12.37
2019-04-04T20:02:53.731Z,10.00
2019-04-04T20:05:30.448Z,14.00
2019-04-04T20:08:00.330Z,10.75
2019-04-04T20:10:30.262Z,5.35
2019-04-04T20:13:00.195Z,20.57
2019-04-04T20:15:29.947Z,16.48
2019-04-04T20:17:59.742Z,8.65
2019-04-04T20:20:30.604Z,14.10
2019-04-04T20:25:31.688Z,11.57
2019-04-04T20:28:01.646Z,9.10
2019-04-04T20:30:37.088Z,11.10
2019-04-04T20:33:08.092Z,12.82
2019-04-04T20:35:38.039Z,9.05
2019-04-04T20:38:08.087Z,7.12
2019-04-04T20:40:38.009Z,6.22
2019-04-04T20:43:07.879Z,4.95
2019-04-04T20:45:39.017Z,3.10
2019-04-04T20:48:08.780Z,3.87
2019-04-04T20:50:38.724Z,2.70
2019-04-04T20:53:08.523Z,4.42
2019-04-04T20:55:38.434Z,3.90
2019-04-04T20:58:08.256Z,2.95
2019-04-04T21:00:39.093Z,6.08
2019-04-04T21:03:09.042Z,6.40
2019-04-04T21:05:38.898Z,4.58
2019-04-04T21:08:08.634Z,4.30
2019-04-04T21:10:38.456Z,5.90
2019-04-04T21:13:08.326Z,5.08
2019-04-04T21:15:38.110Z,3.62
2019-04-04T21:18:08.014Z,3.67
2019-04-04T21:20:37.753Z,5.95
2019-04-04T21:23:07.641Z,3.77
2019-04-04T21:25:37.690Z,5.47
2019-04-04T21:28:07.454Z,4.78
2019-04-04T21:30:37.192Z,4.33
2019-04-04T21:33:06.987Z,3.80
2019-04-04T21:35:36.842Z,5.33
2019-04-04T21:38:06.703Z,3.85
2019-04-04T21:40:36.575Z,4.40
2019-04-04T21:43:06.385Z,4.62
2019-04-04T21:45:38.207Z,4.85
2019-04-04T21:48:07.991Z,6.83
2019-04-04T21:50:43.973Z,3.40
2019-04-04T21:53:14.262Z,2.55
2019-04-04T21:55:44.090Z,2.20
2019-04-04T21:58:14.068Z,3.15
2019-04-04T22:00:45.030Z,2.72
2019-04-04T22:03:15.286Z,3.12
2019-04-04T22:05:53.871Z,2.67
2019-04-04T22:08:23.844Z,3.08
2019-04-04T22:11:01.048Z,2.12
2019-04-04T22:13:30.803Z,2.95
2019-04-04T22:16:00.733Z,8.25
2019-04-04T22:18:30.881Z,2.47
2019-04-04T22:21:49.514Z,2.35
2019-04-04T22:24:22.479Z,4.53
2019-04-04T22:26:53.437Z,2.10
2019-04-04T22:29:23.430Z,2.83
2019-04-04T22:31:53.179Z,1.70
2019-04-04T22:34:23.145Z,3.10
2019-04-04T22:36:52.691Z,2.20
2019-04-04T22:39:22.327Z,1.98
2019-04-04T22:41:52.089Z,1.72
2019-04-04T22:44:33.779Z,2.33
2019-04-04T22:46:53.267Z,3.17
2019-04-04T22:49:23.084Z,1.80
2019-04-04T22:51:52.848Z,1.60
2019-04-04T22:54:22.603Z,1.85
2019-04-04T22:56:52.435Z,2.45
2019-04-04T22:59:22.224Z,2.33
2019-04-04T23:01:52.061Z,1.77
2019-04-04T23:49:33.977Z,1.77
2019-04-04T23:52:03.843Z,1.37
2019-04-04T23:54:33.533Z,4.25
2019-04-04T23:57:05.329Z,1.60
2019-04-04T23:59:35.006Z,1.55
